createdAt,value
2022-11-02T00:01:10.274Z,100.00
2022-11-02T00:03:39.758Z,100.00
2022-11-02T00:06:07.794Z,100.00
2022-11-02T00:08:36.278Z,100.00
2022-11-02T00:11:04.577Z,100.00
2022-11-02T00:13:32.694Z,100.00
2022-11-02T00:16:03.495Z,100.00
2022-11-02T00:18:32.033Z,100.00
2022-11-02T00:21:02.741Z,100.00
2022-11-02T00:23:31.585Z,100.00
2022-11-02T00:26:02.388Z,100.00
2022-11-02T00:28:31.532Z,100.00
2022-11-02T00:30:59.691Z,100.00
2022-11-02T00:33:28.001Z,100.00
2022-11-02T00:35:56.937Z,100.00
2022-11-02T00:38:26.376Z,100.00
2022-11-02T00:40:54.445Z,100.00
2022-11-02T00:43:22.553Z,100.00
2022-11-02T00:45:50.626Z,100.00
2022-11-02T00:48:18.729Z,100.00
2022-11-02T00:50:46.837Z,100.00
2022-11-02T00:53:14.926Z,100.00
2022-11-02T00:55:44.726Z,100.00
2022-11-02T00:58:12.773Z,100.00
2022-11-02T01:00:40.820Z,100.00
2022-11-02T01:03:09.055Z,100.00
2022-11-02T01:05:38.276Z,100.00
2022-11-02T01:08:07.317Z,100.00
2022-11-02T01:10:35.732Z,100.00
2022-11-02T01:13:05.238Z,100.00
2022-11-02T01:15:33.325Z,100.00
2022-11-02T01:18:01.614Z,100.00
2022-11-02T01:20:29.850Z,100.00
2022-11-02T01:22:59.246Z,100.00
2022-11-02T01:25:27.379Z,100.00
2022-11-02T01:27:55.524Z,100.00
2022-11-02T01:30:25.047Z,100.00
2022-11-02T01:32:53.076Z,100.00
2022-11-02T01:35:21.157Z,100.00
2022-11-02T01:37:49.329Z,99.99
2022-11-02T01:40:17.639Z,99.60
2022-11-02T01:42:45.701Z,100.00
2022-11-02T01:45:15.401Z,100.00
2022-11-02T01:47:49.721Z,100.00
2022-11-02T01:50:22.905Z,100.00
2022-11-02T01:52:51.005Z,100.00
2022-11-02T01:55:22.489Z,100.00
2022-11-02T01:57:55.012Z,100.00
2022-11-02T02:00:23.499Z,100.00
2022-11-02T02:03:02.442Z,100.00
2022-11-02T02:05:32.113Z,100.00
2022-11-02T02:08:00.410Z,100.00
2022-11-02T02:10:28.774Z,100.00
2022-11-02T02:12:57.048Z,100.00
2022-11-02T02:15:29.335Z,100.00
2022-11-02T02:18:07.248Z,100.00
2022-11-02T02:20:53.058Z,99.50
2022-11-02T02:23:47.714Z,99.29
2022-11-02T02:26:46.280Z,99.47
2022-11-02T02:29:22.263Z,99.88
2022-11-02T02:31:57.227Z,100.00
2022-11-02T02:34:31.395Z,100.00
2022-11-02T02:37:06.694Z,100.00
2022-11-02T02:39:43.229Z,100.00
2022-11-02T02:42:17.453Z,100.00
2022-11-02T02:44:53.996Z,100.00
2022-11-02T02:47:27.921Z,100.00
2022-11-02T02:50:02.642Z,100.00
2022-11-02T02:52:33.992Z,100.00
2022-11-02T02:55:05.304Z,100.00
2022-11-02T02:57:35.963Z,100.00
2022-11-02T03:00:06.345Z,100.00
2022-11-02T03:02:37.378Z,100.00
2022-11-02T03:05:24.321Z,100.00
2022-11-02T03:07:52.630Z,100.00
2022-11-02T03:10:25.221Z,100.00
2022-11-02T03:13:05.713Z,100.00
2022-11-02T03:15:40.529Z,98.64
2022-11-02T03:18:18.550Z,97.40
2022-11-02T03:20:59.521Z,97.06
2022-11-02T03:23:32.410Z,96.29
2022-11-02T03:26:05.778Z,95.11
2022-11-02T03:28:55.387Z,94.82
2022-11-02T03:31:35.146Z,94.84
2022-11-02T03:34:13.569Z,94.81
2022-11-02T03:36:46.615Z,94.49
2022-11-02T03:39:19.317Z,94.14
2022-11-02T03:41:49.567Z,94.04
2022-11-02T03:44:21.840Z,93.68
2022-11-02T03:46:55.961Z,93.17
2022-11-02T03:49:26.138Z,92.47
2022-11-02T03:51:56.406Z,92.03
2022-11-02T03:54:41.224Z,91.45
2022-11-02T03:57:13.977Z,91.19
2022-11-02T03:59:42.047Z,91.00
2022-11-02T04:02:14.769Z,90.37
2022-11-02T04:04:50.470Z,89.90
2022-11-02T04:07:22.174Z,89.99
2022-11-02T04:09:50.253Z,90.35
2022-11-02T04:12:36.030Z,90.67
2022-11-02T04:15:04.402Z,90.10
2022-11-02T04:17:51.474Z,90.00
2022-11-02T04:20:19.508Z,89.35
2022-11-02T04:23:05.222Z,88.91
2022-11-02T04:25:33.298Z,89.14
2022-11-02T04:28:08.983Z,88.65
2022-11-02T04:30:37.125Z,89.90
2022-11-02T04:33:24.363Z,91.51
2022-11-02T04:35:52.416Z,93.03
2022-11-02T04:38:38.220Z,92.94
2022-11-02T04:41:24.192Z,92.42
2022-11-02T04:43:52.454Z,92.52
2022-11-02T04:46:21.367Z,92.75
2022-11-02T04:48:51.166Z,92.23
2022-11-02T04:51:20.643Z,93.24
2022-11-02T04:53:48.788Z,94.75
2022-11-02T04:56:17.181Z,96.13
2022-11-02T04:58:45.295Z,96.21
2022-11-02T05:01:16.336Z,97.06
2022-11-02T05:03:44.843Z,98.83
2022-11-02T05:06:14.275Z,99.38
2022-11-02T05:08:42.490Z,100.00
2022-11-02T05:11:11.146Z,99.84
2022-11-02T05:13:40.861Z,100.00
2022-11-02T05:16:12.441Z,100.00
2022-11-02T05:18:40.616Z,100.00
2022-11-02T05:21:10.209Z,100.00
2022-11-02T05:23:39.821Z,100.00
2022-11-02T05:26:10.626Z,100.00
2022-11-02T05:28:38.757Z,100.00
2022-11-02T05:31:07.586Z,100.00
2022-11-02T05:33:36.521Z,99.90
2022-11-02T05:36:05.349Z,99.99
2022-11-02T05:38:33.552Z,100.00
2022-11-02T05:41:03.089Z,98.95
2022-11-02T05:43:31.687Z,98.57
2022-11-02T05:46:01.879Z,98.27
2022-11-02T05:48:33.028Z,98.32
2022-11-02T05:51:02.485Z,98.34
2022-11-02T05:53:33.928Z,98.70
2022-11-02T05:56:05.399Z,99.97
2022-11-02T05:58:34.246Z,100.00
2022-11-02T06:01:03.527Z,100.00
2022-11-02T06:03:32.309Z,100.00
2022-11-02T06:06:01.111Z,100.00
2022-11-02T06:08:29.537Z,100.00
2022-11-02T06:10:57.590Z,100.00
2022-11-02T06:13:27.017Z,99.33
2022-11-02T06:15:55.087Z,98.75
2022-11-02T06:18:23.188Z,98.48
2022-11-02T06:20:51.281Z,97.63
2022-11-02T06:23:19.328Z,97.34
2022-11-02T06:25:53.046Z,96.62
2022-11-02T06:28:21.582Z,96.48
2022-11-02T06:30:51.062Z,94.70
2022-11-02T06:33:19.700Z,94.76
2022-11-02T06:35:49.188Z,93.59
2022-11-02T06:38:17.434Z,92.58
2022-11-02T06:40:54.136Z,92.46
2022-11-02T06:43:22.805Z,91.96
2022-11-02T06:45:56.035Z,90.53
2022-11-02T06:48:25.018Z,90.28
2022-11-02T06:50:54.567Z,89.52
2022-11-02T06:53:22.635Z,89.42
2022-11-02T06:55:54.141Z,88.19
2022-11-02T06:58:23.414Z,86.56
2022-11-02T07:00:58.560Z,80.51
2022-11-02T07:03:26.876Z,75.44
2022-11-02T07:05:55.803Z,74.00
2022-11-02T07:08:24.624Z,73.20
2022-11-02T07:10:52.910Z,73.82
2022-11-02T07:13:21.217Z,72.31
2022-11-02T07:15:52.099Z,72.36
2022-11-02T07:18:21.594Z,73.46
2022-11-02T07:20:49.726Z,74.22
2022-11-02T07:23:17.970Z,74.14
2022-11-02T07:25:46.069Z,73.99
2022-11-02T07:28:14.249Z,74.46
2022-11-02T07:30:42.365Z,73.31
2022-11-02T07:33:10.477Z,72.88
2022-11-02T07:35:39.997Z,73.50
2022-11-02T07:40:38.981Z,72.72
2022-11-02T07:43:08.468Z,71.98
2022-11-02T07:45:36.697Z,71.74
2022-11-02T07:48:04.935Z,71.68
2022-11-02T07:50:33.042Z,71.48
2022-11-02T07:53:02.879Z,70.70
2022-11-02T07:55:32.551Z,70.91
2022-11-02T07:58:03.124Z,70.01
2022-11-02T08:00:32.645Z,70.58
2022-11-02T08:03:02.688Z,70.13
2022-11-02T08:05:32.480Z,69.83
2022-11-02T08:08:03.317Z,69.92
2022-11-02T08:10:38.916Z,70.26
2022-11-02T08:13:08.234Z,69.20
2022-11-02T08:15:36.287Z,70.11
2022-11-02T08:18:06.235Z,69.55
2022-11-02T08:20:36.227Z,69.33
2022-11-02T08:23:07.796Z,69.21
2022-11-02T08:25:36.185Z,68.28
2022-11-02T08:28:05.709Z,67.38
2022-11-02T08:30:34.794Z,67.15
2022-11-02T08:33:08.099Z,66.35
2022-11-02T08:35:37.763Z,65.37
2022-11-02T08:38:08.306Z,64.66
2022-11-02T08:40:37.381Z,64.29
2022-11-02T08:43:07.831Z,64.50
2022-11-02T08:46:08.439Z,64.02
2022-11-02T08:48:25.497Z,63.41
2022-11-02T08:50:53.583Z,62.81
2022-11-02T08:53:23.602Z,63.40
2022-11-02T08:55:51.764Z,63.46
2022-11-02T08:58:19.862Z,62.36
2022-11-02T09:00:47.952Z,62.18
2022-11-02T09:03:20.668Z,60.96
2022-11-02T09:05:57.191Z,60.47
2022-11-02T09:08:27.949Z,60.20
2022-11-02T09:10:59.916Z,60.00
2022-11-02T09:13:28.477Z,60.01
2022-11-02T09:15:58.234Z,59.26
2022-11-02T09:18:26.635Z,59.55
2022-11-02T09:20:54.925Z,58.42
2022-11-02T09:23:23.609Z,57.93
2022-11-02T09:25:53.691Z,57.15
2022-11-02T09:28:21.742Z,56.70
2022-11-02T09:30:49.890Z,56.98
2022-11-02T09:33:18.110Z,56.18
2022-11-02T09:35:48.318Z,56.47
2022-11-02T09:38:18.480Z,55.94
2022-11-02T09:40:53.372Z,54.96
2022-11-02T09:43:34.095Z,54.52
2022-11-02T09:46:07.744Z,54.31
2022-11-02T09:48:40.223Z,53.77
2022-11-02T09:51:11.909Z,54.19
2022-11-02T09:53:51.871Z,54.49
2022-11-02T09:56:21.132Z,54.34
2022-11-02T09:58:57.604Z,54.39
2022-11-02T10:01:43.623Z,53.91
2022-11-02T10:04:37.527Z,54.27
2022-11-02T10:07:15.258Z,54.25
2022-11-02T10:09:48.871Z,54.77
2022-11-02T10:12:22.410Z,53.48
2022-11-02T10:15:01.106Z,53.38
2022-11-02T10:17:31.983Z,52.93
2022-11-02T10:20:06.782Z,52.87
2022-11-02T10:22:39.385Z,52.28
2022-11-02T10:25:08.996Z,51.70
2022-11-02T10:27:39.796Z,51.80
2022-11-02T10:30:15.784Z,51.78
2022-11-02T10:32:46.007Z,51.88
2022-11-02T10:38:21.892Z,51.20
2022-11-02T10:41:06.942Z,51.11
2022-11-02T10:43:54.355Z,50.30
2022-11-02T10:46:38.239Z,50.54
2022-11-02T10:49:14.743Z,49.78
2022-11-02T10:51:42.964Z,50.00
2022-11-02T10:54:17.714Z,49.42
2022-11-02T10:56:50.571Z,49.65
2022-11-02T10:59:20.183Z,49.65
2022-11-02T11:02:07.077Z,49.00
2022-11-02T11:04:36.223Z,48.94
2022-11-02T11:07:08.255Z,48.81
2022-11-02T11:09:45.692Z,48.01
2022-11-02T11:12:21.046Z,47.35
2022-11-02T11:20:36.641Z,46.41
2022-11-02T11:23:26.505Z,46.04
2022-11-02T11:25:59.946Z,46.47
2022-11-02T11:28:30.880Z,46.08
2022-11-02T11:31:12.664Z,45.73
2022-11-02T11:33:49.716Z,46.05
2022-11-02T11:39:02.449Z,45.70
2022-11-02T11:41:32.606Z,44.98
2022-11-02T11:44:02.658Z,45.67
2022-11-02T11:46:41.750Z,45.19
2022-11-02T11:49:31.124Z,44.66
2022-11-02T11:52:05.334Z,45.07
2022-11-02T11:54:34.258Z,44.12
2022-11-02T11:57:24.963Z,44.19
2022-11-02T11:59:55.418Z,44.48
2022-11-02T12:02:25.639Z,44.12
2022-11-02T12:05:01.580Z,44.11
2022-11-02T12:08:01.857Z,44.42
2022-11-02T12:10:56.670Z,43.67
2022-11-02T12:13:40.396Z,42.77
2022-11-02T12:16:18.376Z,43.04
2022-11-02T12:18:56.532Z,42.20
2022-11-02T12:21:42.220Z,41.35
2022-11-02T12:24:32.943Z,41.38
2022-11-02T12:27:16.855Z,41.01
2022-11-02T12:30:11.674Z,40.47
2022-11-02T12:32:59.624Z,40.59
2022-11-02T12:35:48.624Z,40.77
2022-11-02T12:38:49.824Z,40.70
2022-11-02T12:41:32.382Z,42.83
2022-11-02T12:44:10.686Z,47.10
2022-11-02T12:46:48.937Z,47.80
2022-11-02T12:49:40.759Z,49.77
2022-11-02T12:52:22.708Z,49.85
2022-11-02T12:54:56.730Z,49.79
2022-11-02T12:57:29.038Z,49.74
2022-11-02T13:00:05.398Z,50.79
2022-11-02T13:02:42.628Z,50.83
2022-11-02T13:05:15.778Z,50.91
2022-11-02T13:07:48.826Z,51.74
2022-11-02T13:10:21.563Z,53.23
2022-11-02T13:12:53.013Z,54.26
2022-11-02T13:15:25.607Z,53.98
2022-11-02T13:17:57.552Z,51.55
2022-11-02T13:20:29.357Z,51.62
2022-11-02T13:23:06.301Z,49.92
2022-11-02T13:25:40.555Z,47.76
2022-11-02T13:28:15.539Z,45.59
2022-11-02T13:30:45.791Z,40.25
2022-11-02T13:33:18.864Z,37.87
2022-11-02T13:35:47.475Z,35.08
2022-11-02T13:38:29.471Z,34.58
2022-11-02T13:41:20.195Z,34.39
2022-11-02T13:44:09.924Z,33.93
2022-11-02T13:46:56.051Z,33.93
2022-11-02T13:49:30.470Z,33.86
2022-11-02T13:52:02.979Z,34.15
2022-11-02T13:54:35.080Z,45.25
2022-11-02T13:57:04.686Z,53.75
2022-11-02T13:59:42.204Z,54.38
2022-11-02T14:02:17.806Z,57.70
2022-11-02T14:04:48.630Z,55.18
2022-11-02T14:07:24.802Z,49.17
2022-11-02T14:09:58.941Z,40.32
2022-11-02T14:12:30.686Z,38.83
2022-11-02T14:15:47.584Z,36.44
2022-11-02T14:18:28.963Z,35.52
2022-11-02T14:20:57.054Z,35.52
2022-11-02T14:23:41.316Z,35.54
2022-11-02T14:26:32.668Z,35.30
2022-11-02T14:29:25.318Z,35.31
2022-11-02T14:32:03.686Z,35.55
2022-11-02T14:34:53.092Z,35.73
2022-11-02T14:37:42.373Z,35.66
2022-11-02T14:40:23.181Z,36.01
2022-11-02T14:43:16.518Z,36.28
2022-11-02T14:46:01.502Z,36.15
2022-11-02T14:48:32.999Z,36.47
2022-11-02T14:51:08.531Z,36.44
2022-11-02T14:53:38.454Z,36.77
2022-11-02T14:56:07.490Z,37.17
2022-11-02T14:58:40.571Z,37.45
2022-11-02T15:01:15.492Z,37.75
2022-11-02T15:03:44.426Z,37.77
2022-11-02T15:06:19.455Z,38.11
2022-11-02T15:08:53.340Z,38.37
2022-11-02T15:11:48.238Z,38.75
2022-11-02T15:14:55.155Z,39.27
2022-11-02T15:18:14.863Z,40.39
2022-11-02T15:20:46.164Z,40.78
2022-11-02T15:23:31.591Z,41.40
2022-11-02T15:26:01.020Z,41.64
2022-11-02T15:28:33.840Z,41.43
2022-11-02T15:31:07.811Z,41.09
2022-11-02T15:33:40.197Z,41.56
2022-11-02T15:36:14.440Z,41.90
2022-11-02T15:38:42.679Z,41.61
2022-11-02T15:41:23.085Z,42.10
2022-11-02T15:44:08.711Z,42.68
2022-11-02T15:46:48.417Z,42.57
2022-11-02T15:49:32.356Z,42.66
2022-11-02T15:52:09.074Z,43.13
2022-11-02T15:54:54.131Z,43.59
2022-11-02T15:57:31.582Z,43.72
2022-11-02T16:00:16.955Z,44.04
2022-11-02T16:02:48.674Z,44.63
2022-11-02T16:05:24.810Z,44.67
2022-11-02T16:08:11.580Z,45.63
2022-11-02T16:10:39.990Z,46.29
2022-11-02T16:13:18.442Z,45.95
2022-11-02T16:15:48.740Z,49.22
2022-11-02T16:18:28.392Z,64.33
2022-11-02T16:21:02.120Z,73.78
2022-11-02T16:23:32.956Z,76.97
2022-11-02T16:26:04.663Z,77.04
2022-11-02T16:28:34.418Z,76.63
2022-11-02T16:31:17.251Z,76.25
2022-11-02T16:33:48.363Z,62.24
2022-11-02T16:36:20.089Z,53.42
2022-11-02T16:38:59.013Z,52.01
2022-11-02T16:41:29.298Z,51.25
2022-11-02T16:43:59.015Z,50.74
2022-11-02T16:46:32.052Z,50.61
2022-11-02T16:49:15.291Z,50.33
2022-11-02T16:51:51.640Z,50.64
2022-11-02T16:54:41.843Z,50.52
2022-11-02T16:57:17.192Z,51.02
2022-11-02T16:59:52.519Z,51.14
2022-11-02T17:02:25.892Z,50.79
2022-11-02T17:05:02.654Z,51.23
2022-11-02T17:07:39.273Z,51.92
2022-11-02T17:10:09.193Z,51.87
2022-11-02T17:12:43.228Z,52.01
2022-11-02T17:15:18.134Z,52.17
2022-11-02T17:17:47.088Z,52.57
2022-11-02T17:20:24.560Z,53.04
2022-11-02T17:22:56.975Z,53.67
2022-11-02T17:25:27.225Z,53.56
2022-11-02T17:27:56.592Z,53.71
2022-11-02T17:30:47.505Z,53.94
2022-11-02T17:33:25.075Z,54.26
2022-11-02T17:35:54.853Z,54.14
2022-11-02T17:38:26.804Z,53.87
2022-11-02T17:40:55.834Z,53.83
2022-11-02T17:43:23.985Z,53.73
2022-11-02T17:45:56.413Z,53.95
2022-11-02T17:48:25.540Z,54.93
2022-11-02T17:50:54.689Z,56.53
2022-11-02T17:53:25.334Z,57.85
2022-11-02T17:55:54.517Z,59.38
2022-11-02T17:58:22.692Z,63.58
2022-11-02T18:00:53.886Z,66.78
2022-11-02T18:03:24.340Z,68.05
2022-11-02T18:05:59.902Z,69.10
2022-11-02T18:08:29.774Z,68.65
2022-11-02T18:10:58.082Z,67.83
2022-11-02T18:13:26.404Z,68.18
2022-11-02T18:15:54.490Z,68.60
2022-11-02T18:18:22.561Z,68.46
2022-11-02T18:20:50.726Z,67.92
2022-11-02T18:23:20.020Z,67.86
2022-11-02T18:25:51.794Z,67.51
2022-11-02T18:28:23.194Z,67.18
2022-11-02T18:30:51.364Z,65.60
2022-11-02T18:33:19.485Z,66.33
2022-11-02T18:35:47.674Z,66.80
2022-11-02T18:38:15.745Z,67.12
2022-11-02T18:40:44.050Z,66.43
2022-11-02T18:43:13.542Z,65.21
2022-11-02T18:45:41.607Z,65.38
2022-11-02T18:48:09.900Z,65.16
2022-11-02T18:50:37.975Z,64.73
2022-11-02T18:53:11.298Z,65.48
2022-11-02T18:55:40.642Z,65.69
2022-11-02T18:58:11.560Z,65.90
2022-11-02T19:00:41.145Z,66.50
2022-11-02T19:03:11.098Z,67.14
2022-11-02T19:08:46.657Z,69.28
2022-11-02T19:11:14.797Z,69.57
2022-11-02T19:13:43.215Z,68.28
2022-11-02T19:16:12.669Z,67.22
2022-11-02T19:18:40.752Z,66.55
2022-11-02T19:21:09.073Z,65.80
2022-11-02T19:23:37.152Z,65.94
2022-11-02T19:26:05.278Z,66.47
2022-11-02T19:28:33.527Z,66.48
2022-11-02T19:31:05.716Z,65.94
2022-11-02T19:33:35.497Z,64.69
2022-11-02T19:36:03.597Z,63.36
2022-11-02T19:38:37.703Z,62.57
2022-11-02T19:41:09.891Z,62.74
2022-11-02T19:43:39.333Z,63.45
2022-11-02T19:46:08.822Z,63.21
2022-11-02T19:48:38.499Z,62.88
2022-11-02T19:51:08.258Z,62.56
2022-11-02T19:53:37.225Z,62.15
2022-11-02T19:56:06.457Z,61.82
2022-11-02T19:58:34.539Z,62.97
2022-11-02T20:01:07.854Z,62.95
2022-11-02T20:03:37.516Z,63.13
2022-11-02T20:06:07.988Z,63.00
2022-11-02T20:08:36.253Z,63.12
2022-11-02T20:11:06.031Z,64.40
2022-11-02T20:13:35.230Z,65.17
2022-11-02T20:16:04.002Z,65.56
2022-11-02T20:18:32.989Z,63.98
2022-11-02T20:21:06.157Z,62.49
2022-11-02T20:23:34.726Z,63.25
2022-11-02T20:26:03.243Z,62.97
2022-11-02T20:28:31.717Z,61.92
2022-11-02T20:31:00.164Z,61.95
2022-11-02T20:33:28.328Z,62.16
2022-11-02T20:35:56.512Z,62.48
2022-11-02T20:38:26.103Z,63.12
2022-11-02T20:40:54.759Z,63.07
2022-11-02T20:43:22.847Z,62.35
2022-11-02T20:45:53.688Z,61.92
2022-11-02T20:48:26.257Z,61.60
2022-11-02T20:50:54.937Z,61.99
2022-11-02T20:53:23.110Z,61.42
2022-11-02T20:55:53.018Z,61.02
2022-11-02T20:58:21.497Z,60.73
2022-11-02T21:00:49.782Z,60.53
2022-11-02T21:03:18.726Z,60.62
2022-11-02T21:05:47.406Z,60.74
2022-11-02T21:08:15.904Z,60.24
2022-11-02T21:10:44.330Z,60.02
2022-11-02T21:13:31.843Z,60.26
2022-11-02T21:16:03.876Z,60.26
2022-11-02T21:18:33.526Z,60.67
2022-11-02T21:21:05.490Z,60.61
2022-11-02T21:23:33.877Z,60.08
2022-11-02T21:26:02.249Z,60.46
2022-11-02T21:28:32.835Z,60.71
2022-11-02T21:31:04.481Z,61.38
2022-11-02T21:33:33.785Z,61.39
2022-11-02T21:36:02.638Z,62.57
2022-11-02T21:38:30.713Z,63.08
2022-11-02T21:41:01.275Z,63.89
2022-11-02T21:43:31.902Z,64.00
2022-11-02T21:46:02.011Z,64.53
2022-11-02T21:48:32.994Z,64.22
2022-11-02T21:51:03.222Z,64.33
2022-11-02T21:53:31.984Z,63.90
2022-11-02T21:56:01.696Z,63.92
2022-11-02T21:58:31.200Z,63.95
2022-11-02T22:01:19.167Z,64.29
2022-11-02T22:03:47.691Z,64.65
2022-11-02T22:06:16.189Z,65.02
2022-11-02T22:08:44.343Z,64.94
2022-11-02T22:11:15.434Z,65.20
2022-11-02T22:13:45.607Z,65.00
2022-11-02T22:16:16.914Z,65.00
2022-11-02T22:18:46.048Z,64.30
2022-11-02T22:21:15.364Z,64.25
2022-11-02T22:23:44.817Z,64.17
2022-11-02T22:26:16.015Z,64.42
2022-11-02T22:28:46.614Z,64.37
2022-11-02T22:31:17.023Z,64.36
2022-11-02T22:33:46.022Z,64.32
2022-11-02T22:36:16.313Z,64.58
2022-11-02T22:38:51.626Z,64.52
2022-11-02T22:41:21.770Z,64.43
2022-11-02T22:43:52.800Z,64.69
2022-11-02T22:46:21.351Z,64.93
2022-11-02T22:48:51.295Z,64.72
2022-11-02T22:51:21.074Z,64.98
2022-11-02T22:53:49.686Z,64.96
2022-11-02T22:56:19.824Z,65.12
2022-11-02T22:58:49.772Z,65.12
2022-11-02T23:01:21.228Z,64.94
2022-11-02T23:03:50.289Z,65.12
2022-11-02T23:06:21.287Z,65.44
2022-11-02T23:08:50.546Z,65.86
2022-11-02T23:11:24.623Z,66.25
2022-11-02T23:13:57.183Z,66.88
2022-11-02T23:16:28.423Z,66.93
2022-11-02T23:19:20.333Z,66.41
2022-11-02T23:22:08.968Z,66.38
2022-11-02T23:24:54.763Z,66.09
2022-11-02T23:27:22.900Z,66.28
2022-11-02T23:30:08.659Z,66.35
2022-11-02T23:32:38.687Z,66.08
2022-11-02T23:35:39.051Z,66.52
2022-11-02T23:38:07.713Z,66.42
2022-11-02T23:40:35.790Z,66.55
2022-11-02T23:43:05.041Z,66.81
2022-11-02T23:45:33.339Z,67.00
2022-11-02T23:48:06.931Z,67.38
2022-11-02T23:50:53.848Z,67.28
2022-11-02T23:53:41.415Z,67.51
2022-11-02T23:56:33.204Z,67.96
2022-11-02T23:59:07.375Z,68.11
